createdAt,value
2019-04-07T00:00:26.522Z,64.60
2019-04-07T00:00:59.792Z,64.37
2019-04-07T00:01:37.776Z,65.63
2019-04-07T00:02:09.344Z,63.23
2019-04-07T00:02:42.475Z,59.57
2019-04-07T00:03:16.538Z,58.33
2019-04-07T00:03:48.321Z,55.17
2019-04-07T00:04:20.285Z,55.10
2019-04-07T00:04:52.141Z,51.53
2019-04-07T00:05:25.629Z,51.13
2019-04-07T00:05:57.514Z,53.17
2019-04-07T00:06:31.642Z,53.17
2019-04-07T00:07:03.775Z,48.77
2019-04-07T00:07:36.939Z,47.70
2019-04-07T00:08:10.170Z,46.57
2019-04-07T00:08:41.371Z,43.30
2019-04-07T00:09:12.637Z,42.50
2019-04-07T00:09:45.795Z,42.73
2019-04-07T00:10:19.245Z,40.97
2019-04-07T00:10:50.596Z,43.90
2019-04-07T00:11:25.578Z,41.13
2019-04-07T00:11:59.137Z,39.30
2019-04-07T00:12:31.013Z,43.70
2019-04-07T00:13:02.870Z,43.00
2019-04-07T00:13:36.496Z,43.13
2019-04-07T00:14:07.691Z,43.77
2019-04-07T00:14:41.028Z,46.80
2019-04-07T00:15:12.181Z,74.63
2019-04-07T00:15:43.419Z,62.67
2019-04-07T00:16:14.603Z,66.67
2019-04-07T00:16:48.339Z,111.60
2019-04-07T00:17:20.619Z,55.40
2019-04-07T00:17:54.352Z,86.33
2019-04-07T00:18:31.272Z,49.40
2019-04-07T00:19:02.515Z,48.90
2019-04-07T00:19:33.942Z,49.57
2019-04-07T00:20:08.868Z,48.47
2019-04-07T00:20:40.283Z,46.70
2019-04-07T00:21:11.608Z,44.00
2019-04-07T00:21:42.968Z,43.23
2019-04-07T00:22:18.793Z,41.73
2019-04-07T00:22:50.061Z,42.07
2019-04-07T00:23:21.378Z,44.80
2019-04-07T00:23:54.552Z,44.87
2019-04-07T00:24:27.697Z,42.10
2019-04-07T00:24:59.534Z,43.50
2019-04-07T00:25:30.968Z,43.93
2019-04-07T00:26:02.293Z,43.87
2019-04-07T00:26:33.782Z,42.47
2019-04-07T00:27:10.281Z,42.20
2019-04-07T00:27:41.518Z,42.00
2019-04-07T00:28:12.785Z,40.90
2019-04-07T00:28:44.019Z,43.70
2019-04-07T00:29:15.565Z,42.77
2019-04-07T00:29:46.985Z,43.57
2019-04-07T00:30:20.294Z,45.07
2019-04-07T00:30:51.510Z,40.17
2019-04-07T00:31:22.833Z,41.53
2019-04-07T00:31:55.995Z,42.97
2019-04-07T00:32:27.368Z,40.23
2019-04-07T00:33:00.861Z,39.17
2019-04-07T00:33:33.529Z,40.23
2019-04-07T00:34:05.256Z,38.67
2019-04-07T00:34:36.884Z,36.73
2019-04-07T00:35:08.244Z,37.60
2019-04-07T00:35:42.835Z,35.03
2019-04-07T00:36:16.539Z,34.90
2019-04-07T00:36:47.822Z,36.17
2019-04-07T00:37:19.100Z,35.83
2019-04-07T00:37:50.345Z,34.13
2019-04-07T00:38:21.602Z,33.73
2019-04-07T00:38:52.828Z,31.97
2019-04-07T00:39:23.986Z,31.33
2019-04-07T00:40:00.000Z,32.30
2019-04-07T00:40:31.159Z,34.17
2019-04-07T00:41:04.603Z,34.33
2019-04-07T00:41:36.427Z,34.67
2019-04-07T00:42:09.657Z,34.43
2019-04-07T00:42:41.321Z,37.97
2019-04-07T00:43:13.606Z,40.30
2019-04-07T00:43:44.920Z,37.13
2019-04-07T00:44:18.064Z,38.10
2019-04-07T00:44:49.678Z,36.57
2019-04-07T00:45:21.502Z,38.13
2019-04-07T00:45:54.676Z,37.00
2019-04-07T00:46:27.957Z,32.10
2019-04-07T00:46:59.791Z,33.67
2019-04-07T00:47:31.415Z,36.10
2019-04-07T00:48:04.496Z,33.07
2019-04-07T00:48:37.613Z,33.97
2019-04-07T00:49:13.837Z,36.50
2019-04-07T00:49:46.568Z,36.47
2019-04-07T00:50:20.730Z,37.20
2019-04-07T00:50:51.977Z,36.17
2019-04-07T00:51:23.226Z,35.57
2019-04-07T00:51:55.831Z,36.20
2019-04-07T00:52:27.319Z,36.70
2019-04-07T00:53:01.273Z,35.40
2019-04-07T00:53:32.594Z,36.07
2019-04-07T00:54:06.172Z,36.93
2019-04-07T00:54:38.418Z,35.37
2019-04-07T00:55:09.966Z,33.87
2019-04-07T00:55:41.746Z,32.93
2019-04-07T00:56:15.823Z,33.03
2019-04-07T00:56:47.014Z,34.53
2019-04-07T00:57:19.886Z,36.70
2019-04-07T00:57:53.707Z,36.37
2019-04-07T00:58:24.936Z,38.67
2019-04-07T00:58:56.171Z,37.77
2019-04-07T00:59:28.680Z,37.63
2019-04-07T01:00:00.450Z,37.43
2019-04-07T01:00:33.775Z,35.93
2019-04-07T01:01:06.314Z,34.77
2019-04-07T01:01:38.193Z,35.10
2019-04-07T01:02:10.580Z,35.47
2019-04-07T01:02:42.996Z,33.67
2019-04-07T01:03:15.214Z,34.20
2019-04-07T01:03:46.506Z,33.50
2019-04-07T01:04:17.715Z,32.47
2019-04-07T01:04:49.035Z,31.33
2019-04-07T01:05:33.707Z,30.97
2019-04-07T01:05:54.470Z,30.37
2019-04-07T01:06:26.149Z,30.00
2019-04-07T01:07:01.698Z,30.17
2019-04-07T01:07:33.437Z,30.73
2019-04-07T01:08:05.217Z,31.30
2019-04-07T01:08:37.484Z,30.40
2019-04-07T01:09:09.141Z,31.07
2019-04-07T01:09:40.368Z,32.17
2019-04-07T01:10:11.516Z,31.17
2019-04-07T01:10:44.608Z,27.70
2019-04-07T01:11:20.297Z,30.80
2019-04-07T01:11:56.112Z,30.70
2019-04-07T01:12:29.342Z,31.87
2019-04-07T01:13:01.047Z,30.57
2019-04-07T01:13:32.253Z,31.67
2019-04-07T01:14:03.432Z,31.30
2019-04-07T01:14:36.793Z,30.77
2019-04-07T01:15:09.911Z,31.10
2019-04-07T01:15:41.717Z,30.83
2019-04-07T01:16:13.150Z,31.30
2019-04-07T01:16:45.538Z,30.13
2019-04-07T01:17:16.838Z,32.37
2019-04-07T01:17:48.701Z,30.63
2019-04-07T01:18:25.796Z,29.60
2019-04-07T01:18:57.178Z,29.50
2019-04-07T01:19:30.001Z,29.80
2019-04-07T01:20:07.364Z,29.30
2019-04-07T01:20:40.536Z,28.87
2019-04-07T01:21:11.739Z,29.43
2019-04-07T01:21:43.547Z,27.40
2019-04-07T01:22:15.409Z,27.53
2019-04-07T01:22:47.360Z,27.70
2019-04-07T01:23:19.215Z,27.67
2019-04-07T01:23:51.065Z,27.40
2019-04-07T01:24:24.384Z,27.47
2019-04-07T01:24:57.445Z,27.80
2019-04-07T01:25:29.264Z,27.50
2019-04-07T01:26:03.150Z,27.50
2019-04-07T01:26:37.172Z,27.83
2019-04-07T01:27:08.356Z,27.83
2019-04-07T01:27:40.080Z,28.27
2019-04-07T01:28:12.042Z,26.93
2019-04-07T01:28:45.631Z,27.03
2019-04-07T01:29:18.792Z,26.57
2019-04-07T01:29:50.662Z,26.33
2019-04-07T01:30:23.875Z,25.23
2019-04-07T01:30:55.149Z,24.90
2019-04-07T01:31:26.413Z,24.57
2019-04-07T01:32:01.832Z,25.30
2019-04-07T01:32:33.067Z,23.70
2019-04-07T01:33:04.467Z,24.30
2019-04-07T01:33:35.618Z,24.77
2019-04-07T01:34:07.517Z,23.43
2019-04-07T01:34:40.714Z,24.30
2019-04-07T01:35:13.763Z,22.53
2019-04-07T01:35:49.219Z,22.80
2019-04-07T01:36:20.111Z,22.90
2019-04-07T01:36:53.474Z,24.33
2019-04-07T01:37:26.295Z,24.43
2019-04-07T01:37:57.464Z,24.90
2019-04-07T01:38:29.075Z,24.43
2019-04-07T01:39:00.842Z,24.80
2019-04-07T01:39:34.953Z,26.57
2019-04-07T01:40:06.266Z,24.90
2019-04-07T01:40:37.459Z,25.67
2019-04-07T01:41:23.725Z,26.07
2019-04-07T01:41:59.711Z,24.57
2019-04-07T01:42:33.420Z,24.57
2019-04-07T01:43:09.226Z,25.13
2019-04-07T01:43:42.482Z,25.57
2019-04-07T01:44:27.655Z,26.27
2019-04-07T01:45:18.113Z,26.40
2019-04-07T01:45:49.944Z,26.53
2019-04-07T01:46:39.420Z,26.17
2019-04-07T01:47:21.039Z,27.73
2019-04-07T01:48:12.638Z,28.47
2019-04-07T01:48:45.783Z,28.07
2019-04-07T01:49:27.235Z,28.23
2019-04-07T01:50:17.385Z,26.60
2019-04-07T01:50:57.122Z,26.07
2019-04-07T01:51:30.979Z,25.73
2019-04-07T01:52:13.043Z,25.50
2019-04-07T01:52:47.260Z,25.23
2019-04-07T01:53:32.395Z,26.60
2019-04-07T01:54:08.702Z,24.80
2019-04-07T01:55:00.167Z,25.13
2019-04-07T01:55:37.485Z,26.07
2019-04-07T01:56:14.046Z,26.50
2019-04-07T01:56:53.991Z,26.93
2019-04-07T01:57:36.894Z,26.37
2019-04-07T01:58:08.127Z,26.80
2019-04-07T01:58:39.275Z,26.27
2019-04-07T01:59:28.895Z,26.50
2019-04-07T02:00:00.758Z,25.67
2019-04-07T02:00:34.879Z,24.67
2019-04-07T02:01:19.879Z,24.63
2019-04-07T02:02:13.538Z,24.43
2019-04-07T02:02:46.691Z,24.20
2019-04-07T02:03:20.367Z,23.93
2019-04-07T02:04:00.184Z,24.13
2019-04-07T02:04:33.572Z,23.53
2019-04-07T02:05:24.284Z,25.53
2019-04-07T02:06:06.743Z,25.73
2019-04-07T02:06:50.199Z,24.40
2019-04-07T02:07:24.616Z,24.30
2019-04-07T02:08:15.521Z,25.53
2019-04-07T02:08:48.584Z,24.17
2019-04-07T02:09:22.574Z,24.57
2019-04-07T02:09:55.720Z,26.03
2019-04-07T02:10:29.069Z,26.17
2019-04-07T02:11:08.337Z,26.80
2019-04-07T02:11:50.474Z,26.27
2019-04-07T02:12:35.047Z,25.57
2019-04-07T02:13:08.553Z,26.17
2019-04-07T02:13:46.758Z,25.90
2019-04-07T02:14:27.731Z,25.17
2019-04-07T02:15:03.875Z,24.47
2019-04-07T02:15:37.234Z,24.80
2019-04-07T02:16:10.439Z,24.13
2019-04-07T02:16:44.218Z,24.70
2019-04-07T02:17:20.263Z,24.97
2019-04-07T02:18:03.603Z,25.17
2019-04-07T02:18:35.402Z,25.00
2019-04-07T02:19:09.649Z,27.23
2019-04-07T02:19:46.066Z,26.30
2019-04-07T02:20:41.239Z,27.10
2019-04-07T02:21:17.387Z,26.60
2019-04-07T02:21:57.286Z,26.77
2019-04-07T02:22:40.792Z,27.20
2019-04-07T02:23:16.498Z,27.10
2019-04-07T02:23:49.631Z,25.33
2019-04-07T02:24:38.899Z,26.57
2019-04-07T02:25:19.934Z,26.67
2019-04-07T02:25:53.185Z,24.17
2019-04-07T02:26:33.257Z,23.80
2019-04-07T02:27:09.864Z,24.37
2019-04-07T02:27:49.051Z,23.53
2019-04-07T02:28:23.030Z,24.03
2019-04-07T02:29:04.983Z,23.67
2019-04-07T02:29:54.357Z,24.23
2019-04-07T02:30:33.369Z,23.00
2019-04-07T02:31:25.024Z,22.33
2019-04-07T02:32:00.175Z,22.20
2019-04-07T02:32:31.502Z,22.93
2019-04-07T02:33:09.328Z,22.77
2019-04-07T02:33:59.958Z,22.50
2019-04-07T02:34:34.060Z,23.27
2019-04-07T02:35:08.708Z,22.30
2019-04-07T02:35:42.284Z,22.30
2019-04-07T02:36:23.916Z,23.43
2019-04-07T02:37:09.997Z,23.53
2019-04-07T02:37:55.068Z,23.03
2019-04-07T02:38:31.638Z,22.70
2019-04-07T02:39:22.044Z,23.97
2019-04-07T02:40:11.853Z,22.37
2019-04-07T02:40:47.211Z,23.20
2019-04-07T02:41:27.447Z,24.00
2019-04-07T02:42:17.160Z,23.20
2019-04-07T02:42:56.306Z,23.47
2019-04-07T02:43:32.753Z,24.83
2019-04-07T02:44:06.869Z,24.47
2019-04-07T02:44:57.307Z,24.37
2019-04-07T02:45:36.615Z,24.33
2019-04-07T02:46:15.761Z,24.10
2019-04-07T02:46:56.765Z,24.43
2019-04-07T02:47:35.615Z,24.93
2019-04-07T02:48:25.161Z,24.97
2019-04-07T02:49:01.868Z,25.13
2019-04-07T02:49:41.172Z,24.20
2019-04-07T02:50:15.414Z,24.60
2019-04-07T02:50:54.954Z,24.70
2019-04-07T02:51:28.109Z,26.47
2019-04-07T02:52:11.298Z,25.50
2019-04-07T02:53:01.536Z,27.00
2019-04-07T02:53:33.145Z,23.63
2019-04-07T02:54:10.778Z,24.53
2019-04-07T02:54:57.883Z,25.33
2019-04-07T02:55:39.556Z,22.23
2019-04-07T02:56:13.356Z,23.13
2019-04-07T02:56:58.167Z,23.00
2019-04-07T02:57:34.161Z,22.70
2019-04-07T02:58:10.365Z,22.73
2019-04-07T02:59:00.061Z,22.70
2019-04-07T02:59:35.331Z,22.57
2019-04-07T03:00:07.591Z,22.50
2019-04-07T03:00:41.378Z,23.57
2019-04-07T03:01:18.057Z,23.57
2019-04-07T03:01:57.446Z,24.30
2019-04-07T03:02:36.410Z,23.57
2019-04-07T03:03:13.032Z,21.67
2019-04-07T03:04:03.763Z,21.93
2019-04-07T03:04:44.451Z,22.07
2019-04-07T03:05:20.973Z,24.47
2019-04-07T03:06:04.963Z,23.90
2019-04-07T03:06:54.808Z,23.33
2019-04-07T03:07:36.059Z,23.37
2019-04-07T03:08:10.235Z,23.53
2019-04-07T03:09:00.183Z,22.80
2019-04-07T03:09:52.308Z,22.83
2019-04-07T03:10:31.466Z,22.63
2019-04-07T03:11:07.366Z,23.33
2019-04-07T03:11:56.425Z,24.33
2019-04-07T03:12:27.799Z,24.00
2019-04-07T03:13:16.660Z,24.27
2019-04-07T03:14:00.196Z,23.17
2019-04-07T03:14:37.244Z,23.37
2019-04-07T03:15:13.410Z,23.93
2019-04-07T03:15:46.571Z,24.07
2019-04-07T03:16:22.593Z,23.70
2019-04-07T03:17:13.815Z,23.87
2019-04-07T03:17:50.061Z,24.93
2019-04-07T03:18:31.627Z,25.03
2019-04-07T03:19:10.956Z,25.67
2019-04-07T03:19:58.946Z,24.67
2019-04-07T03:20:36.190Z,26.10
2019-04-07T03:21:10.340Z,26.47
2019-04-07T03:21:44.211Z,26.57
2019-04-07T03:22:33.768Z,26.63
2019-04-07T03:23:09.486Z,25.03
2019-04-07T03:23:53.319Z,25.00
2019-04-07T03:24:30.537Z,26.43
2019-04-07T03:25:15.687Z,25.37
2019-04-07T03:25:51.549Z,24.60
2019-04-07T03:26:29.325Z,24.77
2019-04-07T03:27:05.849Z,24.13
2019-04-07T03:27:52.703Z,24.70
2019-04-07T03:28:26.272Z,30.73
2019-04-07T03:29:01.217Z,30.10
2019-04-07T03:29:38.514Z,30.17
2019-04-07T03:30:14.549Z,28.70
2019-04-07T03:31:02.110Z,27.73
2019-04-07T03:31:39.042Z,28.63
2019-04-07T03:32:15.862Z,28.20
2019-04-07T03:33:06.030Z,28.77
2019-04-07T03:33:54.278Z,27.43
2019-04-07T03:34:32.635Z,27.33
2019-04-07T03:35:15.053Z,27.13
2019-04-07T03:35:50.966Z,26.50
2019-04-07T03:37:09.898Z,25.67
2019-04-07T03:37:33.348Z,25.73
2019-04-07T03:38:12.119Z,25.57
2019-04-07T03:38:46.088Z,24.23
2019-04-07T03:39:31.867Z,24.47
2019-04-07T03:40:15.701Z,25.73
2019-04-07T03:40:49.850Z,24.53
2019-04-07T03:41:23.850Z,25.97
2019-04-07T03:41:55.545Z,24.77
2019-04-07T03:42:26.823Z,25.83
2019-04-07T03:43:19.921Z,24.63
2019-04-07T03:43:55.898Z,25.70
2019-04-07T03:44:32.305Z,25.93
2019-04-07T03:45:10.148Z,25.83
2019-04-07T03:45:46.312Z,26.33
2019-04-07T03:46:37.545Z,27.33
2019-04-07T03:47:16.623Z,27.80
2019-04-07T03:47:54.726Z,27.00
2019-04-07T03:48:47.907Z,27.57
2019-04-07T03:49:23.483Z,24.77
2019-04-07T03:50:03.388Z,27.50
2019-04-07T03:50:38.658Z,31.60
2019-04-07T03:51:15.025Z,31.60
2019-04-07T03:51:50.139Z,31.20
2019-04-07T03:52:40.495Z,31.17
2019-04-07T03:53:20.126Z,30.70
2019-04-07T03:53:56.927Z,32.03
2019-04-07T03:54:37.818Z,30.97
2019-04-07T03:55:08.741Z,30.30
2019-04-07T03:55:59.979Z,31.50
2019-04-07T03:56:49.890Z,30.20
2019-04-07T03:57:46.373Z,28.43
2019-04-07T03:58:28.289Z,30.60
2019-04-07T03:59:07.621Z,30.67
2019-04-07T03:59:46.797Z,30.13
2019-04-07T04:01:17.986Z,30.37
2019-04-07T04:01:49.676Z,28.77
2019-04-07T04:02:33.306Z,31.10
2019-04-07T04:03:06.727Z,27.60
2019-04-07T04:03:59.201Z,30.33
2019-04-07T04:04:41.569Z,28.10
2019-04-07T04:05:20.726Z,28.10
2019-04-07T04:05:53.886Z,27.73
2019-04-07T04:06:43.478Z,27.40
2019-04-07T04:07:29.372Z,27.80
2019-04-07T04:07:57.982Z,32.50
2019-04-07T04:08:31.756Z,30.67
2019-04-07T04:09:19.768Z,30.23
2019-04-07T04:09:53.948Z,30.40
2019-04-07T04:10:36.471Z,29.30
2019-04-07T04:11:09.971Z,27.63
2019-04-07T04:11:43.699Z,27.97
2019-04-07T04:12:21.282Z,26.40
2019-04-07T04:13:03.768Z,28.07
2019-04-07T04:13:39.679Z,25.40
2019-04-07T04:14:37.980Z,23.03
2019-04-07T04:15:11.993Z,21.93
2019-04-07T04:15:45.210Z,21.10
2019-04-07T04:16:18.070Z,21.63
2019-04-07T04:16:53.031Z,21.40
2019-04-07T04:17:25.008Z,22.03
2019-04-07T04:18:03.489Z,21.87
2019-04-07T04:18:37.474Z,23.43
2019-04-07T04:19:11.998Z,24.10
2019-04-07T04:19:45.128Z,22.90
2019-04-07T04:20:17.429Z,23.37
2019-04-07T04:20:48.665Z,22.87
2019-04-07T04:21:22.102Z,23.23
2019-04-07T04:22:02.123Z,23.10
2019-04-07T04:22:35.948Z,22.67
2019-04-07T04:23:09.063Z,22.63
2019-04-07T04:23:42.944Z,23.07
2019-04-07T04:24:18.530Z,22.97
2019-04-07T04:24:57.644Z,21.83
2019-04-07T04:25:34.081Z,21.60
2019-04-07T04:26:06.924Z,22.90
2019-04-07T04:26:40.121Z,23.53
2019-04-07T04:27:15.344Z,24.13
2019-04-07T04:27:46.736Z,24.57
2019-04-07T04:28:18.325Z,24.87
2019-04-07T04:28:49.591Z,23.80
2019-04-07T04:29:24.876Z,24.70
2019-04-07T04:29:58.122Z,22.27
2019-04-07T04:30:32.034Z,22.87
2019-04-07T04:31:03.335Z,22.60
2019-04-07T04:31:40.179Z,22.10
2019-04-07T04:32:11.745Z,23.27
2019-04-07T04:32:43.660Z,22.77
2019-04-07T04:33:15.930Z,22.93
2019-04-07T04:33:48.470Z,23.40
2019-04-07T04:34:20.532Z,22.90
2019-04-07T04:34:51.979Z,21.47
2019-04-07T04:35:23.163Z,23.57
2019-04-07T04:35:54.368Z,22.30
2019-04-07T04:36:25.550Z,21.97
2019-04-07T04:36:59.631Z,21.63
2019-04-07T04:37:40.407Z,22.47
2019-04-07T04:38:05.983Z,24.53
2019-04-07T04:38:38.432Z,24.83
2019-04-07T04:39:10.089Z,24.87
2019-04-07T04:39:41.422Z,24.87
2019-04-07T04:40:14.049Z,25.60
2019-04-07T04:40:45.952Z,28.10
2019-04-07T04:41:17.222Z,28.53
2019-04-07T04:41:49.080Z,29.70
2019-04-07T04:42:20.541Z,28.43
2019-04-07T04:42:53.808Z,27.87
2019-04-07T04:43:26.046Z,26.83
2019-04-07T04:43:58.012Z,26.07
2019-04-07T04:44:29.573Z,26.40
2019-04-07T04:45:02.214Z,28.90
2019-04-07T04:45:33.904Z,27.80
2019-04-07T04:46:08.698Z,26.00
2019-04-07T04:46:38.739Z,25.00
2019-04-07T04:47:11.037Z,24.80
2019-04-07T04:47:42.836Z,23.90
2019-04-07T04:48:15.520Z,25.30
2019-04-07T04:48:47.307Z,25.37
2019-04-07T04:49:21.538Z,24.33
2019-04-07T04:49:52.923Z,26.70
2019-04-07T04:50:25.814Z,47.50
2019-04-07T04:50:58.050Z,33.33
2019-04-07T04:51:35.513Z,25.37
2019-04-07T04:52:08.418Z,25.30
2019-04-07T04:52:40.855Z,24.43
2019-04-07T04:53:14.922Z,25.80
2019-04-07T04:53:48.197Z,24.70
2019-04-07T04:54:19.466Z,28.53
2019-04-07T04:54:52.607Z,31.17
2019-04-07T04:55:24.286Z,24.57
2019-04-07T04:55:55.720Z,25.80
2019-04-07T04:56:26.986Z,24.93
2019-04-07T04:57:02.527Z,23.97
2019-04-07T04:57:33.990Z,24.47
2019-04-07T04:58:05.558Z,24.87
2019-04-07T04:58:36.714Z,23.07
2019-04-07T04:59:07.970Z,23.47
2019-04-07T04:59:41.024Z,23.60
2019-04-07T05:00:12.361Z,22.50
2019-04-07T05:00:45.445Z,23.10
2019-04-07T05:01:19.627Z,23.30
2019-04-07T05:01:53.954Z,24.57
2019-04-07T05:02:25.774Z,24.37
2019-04-07T05:02:57.244Z,24.87
2019-04-07T05:03:31.527Z,26.90
2019-04-07T05:04:02.923Z,28.97
2019-04-07T05:04:34.439Z,30.00
2019-04-07T05:05:10.894Z,31.83
2019-04-07T05:05:42.258Z,33.13
2019-04-07T05:06:14.383Z,36.17
2019-04-07T05:06:47.847Z,35.63
2019-04-07T05:07:24.468Z,33.40
2019-04-07T05:08:00.786Z,30.17
2019-04-07T05:08:31.191Z,32.43
2019-04-07T05:09:07.182Z,28.03
2019-04-07T05:09:44.300Z,26.43
2019-04-07T05:10:15.392Z,27.63
2019-04-07T05:10:50.986Z,27.43
2019-04-07T05:11:22.364Z,29.23
2019-04-07T05:11:53.990Z,27.93
2019-04-07T05:12:25.910Z,27.10
2019-04-07T05:12:58.918Z,28.37
2019-04-07T05:13:37.191Z,28.27
2019-04-07T05:14:10.500Z,26.40
2019-04-07T05:14:54.784Z,27.13
2019-04-07T05:15:17.555Z,28.37
2019-04-07T05:15:48.856Z,28.47
2019-04-07T05:16:21.338Z,28.50
2019-04-07T05:16:54.817Z,27.00
2019-04-07T05:17:31.145Z,27.07
2019-04-07T05:18:02.497Z,27.17
2019-04-07T05:18:37.113Z,26.43
2019-04-07T05:19:09.782Z,26.97
2019-04-07T05:19:47.803Z,28.13
2019-04-07T05:20:20.947Z,25.27
2019-04-07T05:20:55.271Z,26.17
2019-04-07T05:21:35.064Z,25.17
2019-04-07T05:22:07.101Z,26.97
2019-04-07T05:22:43.359Z,29.30
2019-04-07T05:23:18.525Z,28.53
2019-04-07T05:23:51.395Z,27.10
2019-04-07T05:24:23.113Z,27.13
2019-04-07T05:24:56.666Z,24.80
2019-04-07T05:25:28.358Z,25.03
2019-04-07T05:26:00.385Z,25.17
2019-04-07T05:26:36.555Z,27.07
2019-04-07T05:27:08.454Z,23.10
2019-04-07T05:27:41.605Z,24.23
2019-04-07T05:28:15.386Z,24.07
2019-04-07T05:28:49.175Z,24.57
2019-04-07T05:29:24.948Z,27.30
2019-04-07T05:29:57.429Z,28.23
2019-04-07T05:30:34.716Z,28.77
2019-04-07T05:31:07.231Z,25.67
2019-04-07T05:31:38.744Z,26.83
2019-04-07T05:32:10.003Z,29.27
2019-04-07T05:32:43.229Z,28.70
2019-04-07T05:33:16.587Z,31.10
2019-04-07T05:33:53.132Z,31.33
2019-04-07T05:34:24.358Z,29.03
2019-04-07T05:34:55.659Z,28.40
2019-04-07T05:35:32.899Z,30.00
2019-04-07T05:36:08.085Z,29.63
2019-04-07T05:36:44.661Z,28.90
2019-04-07T05:37:19.825Z,29.83
2019-04-07T05:38:01.850Z,28.90
2019-04-07T05:38:31.148Z,29.70
2019-04-07T05:39:08.717Z,31.03
2019-04-07T05:39:41.116Z,32.73
2019-04-07T05:40:17.489Z,32.23
2019-04-07T05:40:52.116Z,32.73
2019-04-07T05:41:26.361Z,34.20
2019-04-07T05:41:59.209Z,36.67
2019-04-07T05:42:32.862Z,38.27
2019-04-07T05:43:04.738Z,38.90
2019-04-07T05:43:38.839Z,38.37
2019-04-07T05:44:10.017Z,39.07
2019-04-07T05:44:41.231Z,38.77
2019-04-07T05:45:14.991Z,38.83
2019-04-07T05:45:46.608Z,35.93
2019-04-07T05:46:17.785Z,33.17
2019-04-07T05:46:49.802Z,32.20
2019-04-07T05:47:21.297Z,31.63
2019-04-07T05:47:53.442Z,30.77
2019-04-07T05:48:24.940Z,30.33
2019-04-07T05:48:56.671Z,28.37
2019-04-07T05:49:28.201Z,28.03
2019-04-07T05:50:00.596Z,28.77
2019-04-07T05:50:32.668Z,30.17
2019-04-07T05:51:04.588Z,29.87
2019-04-07T05:51:35.754Z,29.50
2019-04-07T05:52:06.979Z,31.27
2019-04-07T05:52:39.839Z,31.67
2019-04-07T05:53:14.618Z,30.63
2019-04-07T05:53:47.081Z,30.07
2019-04-07T05:54:19.846Z,29.93
2019-04-07T05:54:51.543Z,29.37
2019-04-07T05:55:29.281Z,26.97
2019-04-07T05:56:06.399Z,28.20
2019-04-07T05:56:37.997Z,27.87
2019-04-07T05:57:13.410Z,27.63
2019-04-07T05:57:45.346Z,26.03
2019-04-07T05:58:18.884Z,26.83
2019-04-07T05:58:50.175Z,26.20
2019-04-07T05:59:26.674Z,25.80
2019-04-07T05:59:59.228Z,26.43
2019-04-07T06:00:32.373Z,25.03
2019-04-07T06:01:05.205Z,25.13
2019-04-07T06:01:36.718Z,25.93
2019-04-07T06:02:11.142Z,26.47
2019-04-07T06:02:45.763Z,25.10
2019-04-07T06:03:17.681Z,25.00
2019-04-07T06:03:49.080Z,25.97
2019-04-07T06:04:20.648Z,24.80
2019-04-07T06:04:54.034Z,23.13
2019-04-07T06:05:28.039Z,24.37
2019-04-07T06:06:01.402Z,23.83
2019-04-07T06:06:34.510Z,23.37
2019-04-07T06:07:08.037Z,23.77
2019-04-07T06:07:43.739Z,25.13
2019-04-07T06:08:25.984Z,35.33
2019-04-07T06:08:50.721Z,49.97
2019-04-07T06:09:21.990Z,42.87
2019-04-07T06:09:55.712Z,32.63
2019-04-07T06:10:29.458Z,29.67
2019-04-07T06:11:02.126Z,36.00
2019-04-07T06:11:36.126Z,27.47
2019-04-07T06:12:09.819Z,25.67
2019-04-07T06:12:46.076Z,25.10
2019-04-07T06:13:17.490Z,25.10
2019-04-07T06:13:50.390Z,24.57
2019-04-07T06:14:21.789Z,23.57
2019-04-07T06:14:55.354Z,23.80
2019-04-07T06:15:29.103Z,23.37
2019-04-07T06:16:00.336Z,22.23
2019-04-07T06:16:35.946Z,22.70
2019-04-07T06:17:04.974Z,22.87
2019-04-07T06:17:36.750Z,22.23
2019-04-07T06:18:10.509Z,24.10
2019-04-07T06:18:44.568Z,23.70
2019-04-07T06:19:18.236Z,21.97
2019-04-07T06:19:51.586Z,23.07
2019-04-07T06:20:27.980Z,25.60
2019-04-07T06:20:59.465Z,29.40
2019-04-07T06:21:33.337Z,28.00
2019-04-07T06:22:08.701Z,28.43
2019-04-07T06:22:40.359Z,27.00
2019-04-07T06:23:14.590Z,27.20
2019-04-07T06:23:47.671Z,27.23
2019-04-07T06:24:22.316Z,25.80
2019-04-07T06:24:56.059Z,26.53
2019-04-07T06:25:34.734Z,25.63
2019-04-07T06:26:09.283Z,25.50
2019-04-07T06:26:41.505Z,22.97
2019-04-07T06:27:13.832Z,24.03
2019-04-07T06:27:46.778Z,21.87
2019-04-07T06:28:20.651Z,21.47
2019-04-07T06:28:57.041Z,20.40
2019-04-07T06:29:26.926Z,21.83
2019-04-07T06:30:00.826Z,21.60
2019-04-07T06:30:37.277Z,21.17
2019-04-07T06:31:11.734Z,21.33
2019-04-07T06:31:44.871Z,19.70
2019-04-07T06:32:16.626Z,20.77
2019-04-07T06:32:47.888Z,21.27
2019-04-07T06:33:19.772Z,22.67
2019-04-07T06:33:51.644Z,22.57
2019-04-07T06:34:26.556Z,22.60
2019-04-07T06:34:58.416Z,23.27
2019-04-07T06:35:33.583Z,22.17
2019-04-07T06:36:05.094Z,22.37
2019-04-07T06:36:38.682Z,23.97
2019-04-07T06:37:10.016Z,23.50
2019-04-07T06:37:41.814Z,23.47
2019-04-07T06:38:13.288Z,23.30
2019-04-07T06:38:50.353Z,22.57
2019-04-07T06:39:21.444Z,23.03
2019-04-07T06:39:52.809Z,22.67
2019-04-07T06:40:24.237Z,23.33
2019-04-07T06:41:00.096Z,22.57
2019-04-07T06:41:32.343Z,23.77
2019-04-07T06:42:03.953Z,26.00
2019-04-07T06:42:37.579Z,25.00
2019-04-07T06:43:09.327Z,25.43
2019-04-07T06:43:42.559Z,27.13
2019-04-07T06:44:19.879Z,26.43
2019-04-07T06:44:51.105Z,28.00
2019-04-07T06:45:24.713Z,29.07
2019-04-07T06:45:58.458Z,30.57
2019-04-07T06:46:41.233Z,29.67
2019-04-07T06:47:13.184Z,27.57
2019-04-07T06:47:49.771Z,25.37
2019-04-07T06:48:21.180Z,25.57
2019-04-07T06:48:57.141Z,26.13
2019-04-07T06:49:47.489Z,24.77
2019-04-07T06:50:47.248Z,25.53
2019-04-07T06:51:16.124Z,32.03
2019-04-07T06:51:52.778Z,33.43
2019-04-07T06:52:34.608Z,32.23
2019-04-07T06:53:10.562Z,28.77
2019-04-07T06:53:48.980Z,28.00
2019-04-07T06:54:29.816Z,26.00
2019-04-07T06:55:20.124Z,26.23
2019-04-07T06:55:51.398Z,25.27
2019-04-07T06:56:35.143Z,24.10
2019-04-07T06:57:23.398Z,24.17
2019-04-07T06:58:13.042Z,26.30
2019-04-07T06:58:44.936Z,26.10
2019-04-07T06:59:27.278Z,23.60
2019-04-07T07:00:03.742Z,23.00
2019-04-07T07:00:44.325Z,23.13
2019-04-07T07:01:25.775Z,24.03
2019-04-07T07:02:14.995Z,22.00
2019-04-07T07:02:59.654Z,22.53
2019-04-07T07:03:38.126Z,23.67
2019-04-07T07:04:13.174Z,21.67
2019-04-07T07:05:08.448Z,21.73
2019-04-07T07:06:00.731Z,20.60
2019-04-07T07:06:40.618Z,21.93
2019-04-07T07:07:15.939Z,24.00
2019-04-07T07:07:48.254Z,25.07
2019-04-07T07:08:45.201Z,23.97
2019-04-07T07:09:17.908Z,22.67
2019-04-07T07:09:51.916Z,22.50
2019-04-07T07:10:28.987Z,21.67
2019-04-07T07:11:27.558Z,21.30
2019-04-07T07:12:01.619Z,24.47
2019-04-07T07:12:45.007Z,31.93
2019-04-07T07:13:30.794Z,25.23
2019-04-07T07:14:30.056Z,22.47
2019-04-07T07:15:03.332Z,23.70
2019-04-07T07:15:40.476Z,25.40
2019-04-07T07:16:27.621Z,26.37
2019-04-07T07:17:17.007Z,25.30
2019-04-07T07:18:07.994Z,24.23
2019-04-07T07:18:44.719Z,23.20
2019-04-07T07:19:32.903Z,24.23
2019-04-07T07:20:27.703Z,22.50
2019-04-07T07:21:03.986Z,23.67
2019-04-07T07:21:50.167Z,23.93
2019-04-07T07:22:25.744Z,23.10
2019-04-07T07:23:03.889Z,23.40
2019-04-07T07:23:37.454Z,24.13
2019-04-07T07:24:08.689Z,23.57
2019-04-07T07:24:39.871Z,23.70
2019-04-07T07:25:12.390Z,23.20
2019-04-07T07:25:44.294Z,21.57
2019-04-07T07:26:17.168Z,21.67
2019-04-07T07:26:48.435Z,21.47
2019-04-07T07:27:19.615Z,19.97
2019-04-07T07:27:53.374Z,19.73
2019-04-07T07:28:24.619Z,20.30
2019-04-07T07:28:56.031Z,21.07
2019-04-07T07:29:27.310Z,21.03
2019-04-07T07:30:00.405Z,20.23
2019-04-07T07:30:32.395Z,20.77
2019-04-07T07:31:04.354Z,20.87
2019-04-07T07:31:35.806Z,20.13
2019-04-07T07:32:07.010Z,20.10
2019-04-07T07:32:38.927Z,21.27
2019-04-07T07:33:11.165Z,20.40
2019-04-07T07:33:43.660Z,21.80
2019-04-07T07:34:16.389Z,21.20
2019-04-07T07:34:47.804Z,23.33
2019-04-07T07:35:19.149Z,20.97
2019-04-07T07:35:52.688Z,21.13
2019-04-07T07:36:25.394Z,22.43
2019-04-07T07:36:58.594Z,22.33
2019-04-07T07:37:30.105Z,20.50
2019-04-07T07:38:01.382Z,22.90
2019-04-07T07:38:33.428Z,19.67
2019-04-07T07:39:10.266Z,18.50
2019-04-07T07:39:45.146Z,18.53
2019-04-07T07:40:19.286Z,19.43